createdAt,value
2018-12-07T00:00:08.522Z,17.97
2018-12-07T00:01:14.720Z,18.03
2018-12-07T00:02:18.799Z,16.83
2018-12-07T00:03:22.887Z,16.93
2018-12-07T00:04:26.921Z,17.20
2018-12-07T00:05:31.089Z,17.00
2018-12-07T00:06:35.140Z,16.33
2018-12-07T00:07:39.218Z,15.57
2018-12-07T00:08:44.573Z,16.23
2018-12-07T00:09:48.698Z,15.53
2018-12-07T00:10:52.871Z,16.57
2018-12-07T00:11:56.973Z,16.10
2018-12-07T00:13:01.107Z,17.00
2018-12-07T00:14:05.178Z,15.67
2018-12-07T00:15:09.490Z,15.73
2018-12-07T00:16:14.179Z,16.33
2018-12-07T00:17:18.248Z,15.70
2018-12-07T00:18:22.420Z,16.03
2018-12-07T00:19:26.461Z,15.43
2018-12-07T00:20:30.808Z,15.37
2018-12-07T00:21:34.934Z,15.00
2018-12-07T00:22:39.042Z,16.10
2018-12-07T00:23:43.162Z,16.10
2018-12-07T00:24:47.287Z,15.67
2018-12-07T00:25:51.627Z,16.27
2018-12-07T00:26:55.725Z,15.27
2018-12-07T00:27:59.866Z,15.37
2018-12-07T00:29:03.987Z,14.73
2018-12-07T00:30:08.348Z,14.70
2018-12-07T00:31:12.562Z,14.37
2018-12-07T00:32:16.602Z,15.40
2018-12-07T00:33:20.661Z,15.30
2018-12-07T00:34:24.719Z,14.40
2018-12-07T00:35:29.335Z,15.80
2018-12-07T00:36:33.410Z,14.17
2018-12-07T00:37:37.508Z,14.47
2018-12-07T00:38:41.644Z,14.73
2018-12-07T00:39:46.181Z,15.00
2018-12-07T00:40:50.331Z,14.03
2018-12-07T00:41:54.390Z,14.53
2018-12-07T00:42:58.500Z,15.33
2018-12-07T00:44:02.657Z,14.50
2018-12-07T00:45:07.189Z,13.90
2018-12-07T00:46:11.420Z,13.43
2018-12-07T00:47:15.545Z,14.60
2018-12-07T00:48:19.823Z,14.23
2018-12-07T00:49:23.935Z,13.57
2018-12-07T00:50:28.112Z,13.87
2018-12-07T00:51:32.148Z,14.13
2018-12-07T00:52:36.270Z,13.03
2018-12-07T00:53:40.437Z,12.83
2018-12-07T00:54:44.503Z,13.20
2018-12-07T00:55:48.607Z,13.80
2018-12-07T00:56:52.695Z,13.47
2018-12-07T00:57:57.944Z,12.60
2018-12-07T00:59:01.985Z,13.27
2018-12-07T01:00:07.033Z,11.67
2018-12-07T01:01:11.267Z,13.23
2018-12-07T01:02:15.451Z,13.20
2018-12-07T01:03:19.707Z,12.90
2018-12-07T01:04:23.761Z,13.77
2018-12-07T01:05:27.925Z,12.70
2018-12-07T01:06:31.972Z,13.30
2018-12-07T01:07:36.095Z,13.60
2018-12-07T01:08:40.168Z,13.77
2018-12-07T01:09:44.192Z,13.50
2018-12-07T01:10:48.484Z,13.00
2018-12-07T01:11:52.676Z,13.53
2018-12-07T01:12:56.955Z,14.17
2018-12-07T01:14:01.020Z,15.33
2018-12-07T01:15:05.443Z,14.40
2018-12-07T01:16:09.455Z,14.27
2018-12-07T01:17:13.559Z,15.47
2018-12-07T01:18:17.650Z,15.10
2018-12-07T01:19:21.788Z,15.63
2018-12-07T01:20:25.905Z,16.00
2018-12-07T01:21:29.910Z,16.67
2018-12-07T01:22:34.078Z,16.37
2018-12-07T01:23:38.156Z,16.67
2018-12-07T01:24:42.163Z,17.60
2018-12-07T01:25:46.344Z,18.10
2018-12-07T01:26:50.379Z,17.53
2018-12-07T01:27:54.458Z,17.67
2018-12-07T01:28:58.621Z,18.70
2018-12-07T01:30:02.721Z,19.17
2018-12-07T01:31:06.935Z,20.00
2018-12-07T01:32:11.049Z,19.90
2018-12-07T01:33:15.125Z,22.43
2018-12-07T01:34:19.204Z,20.83
2018-12-07T01:35:23.282Z,22.13
2018-12-07T01:36:27.387Z,21.50
2018-12-07T01:37:31.650Z,22.70
2018-12-07T01:38:35.689Z,21.43
2018-12-07T01:39:39.781Z,23.90
2018-12-07T01:40:43.816Z,23.83
2018-12-07T01:41:47.865Z,24.63
2018-12-07T01:42:51.904Z,23.90
2018-12-07T01:43:55.958Z,25.00
2018-12-07T01:45:00.021Z,23.67
2018-12-07T01:46:04.148Z,24.23
2018-12-07T01:47:08.217Z,24.93
2018-12-07T01:48:12.361Z,24.60
2018-12-07T01:49:16.372Z,22.77
2018-12-07T01:50:20.429Z,23.30
2018-12-07T01:51:24.492Z,22.17
2018-12-07T01:52:28.531Z,23.40
2018-12-07T01:53:32.552Z,22.43
2018-12-07T01:54:36.595Z,22.70
2018-12-07T01:55:40.677Z,21.77
2018-12-07T01:56:44.837Z,21.37
2018-12-07T01:57:48.896Z,22.73
2018-12-07T01:58:53.002Z,22.50
2018-12-07T01:59:57.101Z,20.67
2018-12-07T02:01:01.291Z,22.80
2018-12-07T02:02:05.712Z,20.70
2018-12-07T02:03:09.798Z,22.20
2018-12-07T02:04:13.817Z,20.87
2018-12-07T02:05:17.898Z,22.37
2018-12-07T02:06:22.284Z,21.60
2018-12-07T02:07:32.927Z,21.77
2018-12-07T02:08:37.039Z,22.23
2018-12-07T02:09:41.088Z,20.90
2018-12-07T02:10:45.177Z,22.40
2018-12-07T02:11:50.298Z,20.80
2018-12-07T02:12:54.355Z,21.83
2018-12-07T02:13:58.471Z,22.40
2018-12-07T02:15:02.617Z,23.40
2018-12-07T02:16:06.706Z,22.27
2018-12-07T02:17:10.760Z,22.00
2018-12-07T02:18:14.787Z,22.87
2018-12-07T02:19:18.842Z,22.03
2018-12-07T02:20:22.925Z,21.83
2018-12-07T02:21:27.089Z,21.03
2018-12-07T02:22:31.337Z,21.53
2018-12-07T02:23:35.498Z,21.47
2018-12-07T02:24:39.686Z,22.17
2018-12-07T02:25:43.748Z,21.67
2018-12-07T02:26:48.033Z,22.77
2018-12-07T02:27:57.556Z,22.60
2018-12-07T02:29:01.705Z,22.33
2018-12-07T02:30:06.549Z,23.53
2018-12-07T02:31:10.813Z,23.20
2018-12-07T02:32:14.940Z,24.23
2018-12-07T02:33:19.151Z,23.97
2018-12-07T02:34:23.203Z,23.83
2018-12-07T02:35:27.431Z,25.27
2018-12-07T02:36:31.492Z,24.73
2018-12-07T02:37:35.553Z,25.00
2018-12-07T02:38:39.665Z,25.10
2018-12-07T02:39:44.732Z,24.57
2018-12-07T02:40:48.815Z,25.13
2018-12-07T02:41:52.889Z,23.87
2018-12-07T02:42:56.918Z,24.67
2018-12-07T02:44:01.112Z,24.83
2018-12-07T02:45:06.722Z,24.40
2018-12-07T02:46:10.782Z,26.40
2018-12-07T02:47:14.814Z,25.20
2018-12-07T02:48:18.829Z,24.10
2018-12-07T02:49:22.915Z,25.30
2018-12-07T02:50:26.937Z,24.23
2018-12-07T02:51:31.087Z,25.10
2018-12-07T02:52:35.125Z,24.13
2018-12-07T02:53:39.178Z,24.07
2018-12-07T02:54:43.237Z,23.97
2018-12-07T02:55:47.259Z,24.40
2018-12-07T02:56:51.321Z,25.27
2018-12-07T02:57:55.345Z,25.07
2018-12-07T02:58:59.458Z,23.73
2018-12-07T03:00:04.471Z,23.07
2018-12-07T03:01:10.577Z,25.47
2018-12-07T03:02:14.699Z,22.93
2018-12-07T03:03:18.791Z,23.17
2018-12-07T03:04:22.809Z,22.47
2018-12-07T03:05:26.898Z,23.87
2018-12-07T03:06:31.038Z,24.10
2018-12-07T03:07:35.061Z,24.67
2018-12-07T03:08:39.168Z,25.20
2018-12-07T03:09:43.345Z,24.63
2018-12-07T03:10:47.433Z,25.83
2018-12-07T03:11:51.555Z,24.07
2018-12-07T03:12:55.596Z,24.87
2018-12-07T03:13:59.843Z,24.63
2018-12-07T03:15:04.951Z,25.57
2018-12-07T03:16:09.091Z,24.87
2018-12-07T03:17:13.469Z,25.63
2018-12-07T03:18:31.094Z,26.17
2018-12-07T03:19:35.121Z,25.40
2018-12-07T03:20:39.189Z,24.90
2018-12-07T03:21:43.285Z,24.40
2018-12-07T03:22:47.406Z,23.67
2018-12-07T03:23:51.564Z,25.07
2018-12-07T03:24:55.599Z,25.70
2018-12-07T03:25:59.773Z,26.30
2018-12-07T03:27:03.940Z,25.33
2018-12-07T03:28:08.051Z,25.00
2018-12-07T03:29:12.169Z,26.07
2018-12-07T03:30:16.219Z,24.83
2018-12-07T03:31:20.263Z,25.27
2018-12-07T03:32:24.381Z,25.70
2018-12-07T03:33:28.427Z,26.90
2018-12-07T03:34:32.464Z,27.43
2018-12-07T03:35:36.545Z,25.83
2018-12-07T03:36:40.623Z,25.37
2018-12-07T03:37:44.766Z,25.63
2018-12-07T03:38:48.841Z,25.93
2018-12-07T03:39:52.895Z,25.67
2018-12-07T03:40:56.965Z,27.10
2018-12-07T03:42:01.045Z,25.43
2018-12-07T03:43:05.083Z,24.13
2018-12-07T03:44:09.256Z,24.97
2018-12-07T03:45:13.402Z,24.93
2018-12-07T03:46:17.466Z,25.17
2018-12-07T03:47:21.487Z,24.47
2018-12-07T03:48:25.534Z,24.47
2018-12-07T03:49:29.671Z,25.80
2018-12-07T03:50:33.792Z,25.23
2018-12-07T03:51:37.860Z,23.83
2018-12-07T03:52:41.902Z,24.23
2018-12-07T03:53:45.981Z,24.47
2018-12-07T03:54:50.023Z,22.97
2018-12-07T03:55:54.075Z,23.50
2018-12-07T03:56:58.305Z,23.10
2018-12-07T03:58:02.346Z,23.43
2018-12-07T03:59:06.386Z,23.53
2018-12-07T04:00:10.605Z,24.50
2018-12-07T04:01:14.742Z,22.23
2018-12-07T04:02:19.084Z,23.80
2018-12-07T04:03:23.166Z,23.87
2018-12-07T04:04:27.344Z,22.57
2018-12-07T04:05:31.485Z,23.80
2018-12-07T04:06:35.514Z,22.37
2018-12-07T04:07:39.554Z,22.93
2018-12-07T04:08:43.658Z,23.97
2018-12-07T04:09:47.746Z,22.57
2018-12-07T04:10:51.787Z,21.53
2018-12-07T04:11:55.979Z,21.33
2018-12-07T04:13:00.180Z,21.33
2018-12-07T04:14:04.515Z,20.43
2018-12-07T04:15:08.687Z,22.87
2018-12-07T04:16:12.762Z,23.30
2018-12-07T04:17:16.835Z,23.07
2018-12-07T04:18:20.928Z,22.20
2018-12-07T04:19:25.811Z,21.07
2018-12-07T04:20:29.870Z,21.80
2018-12-07T04:21:34.358Z,20.63
2018-12-07T04:22:38.568Z,21.27
2018-12-07T04:23:42.732Z,20.10
2018-12-07T04:24:46.767Z,21.43
2018-12-07T04:25:50.809Z,21.83
2018-12-07T04:26:56.854Z,19.83
2018-12-07T04:28:00.920Z,19.23
2018-12-07T04:29:08.274Z,19.60
2018-12-07T04:30:26.660Z,21.33
2018-12-07T04:31:30.763Z,20.53
2018-12-07T04:32:34.878Z,20.13
2018-12-07T04:33:38.942Z,19.43
2018-12-07T04:34:42.964Z,20.97
2018-12-07T04:35:47.131Z,21.07
2018-12-07T04:36:51.237Z,20.40
2018-12-07T04:37:55.336Z,20.67
2018-12-07T04:38:59.774Z,21.00
2018-12-07T04:40:04.080Z,20.37
2018-12-07T04:41:08.261Z,19.87
2018-12-07T04:42:12.287Z,20.47
2018-12-07T04:43:16.524Z,20.47
2018-12-07T04:44:20.615Z,19.77
2018-12-07T04:45:26.709Z,19.83
2018-12-07T04:46:30.794Z,20.63
2018-12-07T04:47:34.871Z,19.90
2018-12-07T04:48:38.939Z,20.47
2018-12-07T04:49:42.996Z,20.87
2018-12-07T04:50:47.040Z,19.60
2018-12-07T04:51:51.090Z,19.40
2018-12-07T04:52:55.120Z,20.07
2018-12-07T04:53:59.210Z,20.20
2018-12-07T04:55:03.368Z,19.77
2018-12-07T04:56:07.421Z,18.93
2018-12-07T04:57:11.674Z,18.80
2018-12-07T04:58:15.724Z,19.37
2018-12-07T04:59:19.934Z,18.67
2018-12-07T05:00:24.263Z,20.23
2018-12-07T05:01:29.274Z,17.10
2018-12-07T05:02:33.335Z,18.37
2018-12-07T05:03:37.368Z,18.97
2018-12-07T05:04:41.424Z,17.27
2018-12-07T05:05:45.626Z,17.33
2018-12-07T05:06:49.665Z,17.43
2018-12-07T05:07:53.750Z,16.93
2018-12-07T05:08:57.917Z,18.37
2018-12-07T05:10:01.960Z,17.20
2018-12-07T05:11:06.241Z,17.67
2018-12-07T05:12:10.316Z,19.00
2018-12-07T05:13:14.419Z,17.97
2018-12-07T05:14:18.534Z,18.17
2018-12-07T05:15:22.827Z,16.67
2018-12-07T05:16:27.205Z,17.23
2018-12-07T05:17:31.245Z,17.40
2018-12-07T05:18:35.325Z,16.47
2018-12-07T05:19:39.367Z,16.77
2018-12-07T05:20:43.403Z,17.57
2018-12-07T05:21:47.463Z,18.23
2018-12-07T05:22:51.545Z,17.33
2018-12-07T05:23:55.554Z,17.20
2018-12-07T05:24:59.579Z,16.37
2018-12-07T05:26:03.667Z,17.57
2018-12-07T05:27:07.677Z,17.50
2018-12-07T05:28:11.829Z,17.30
2018-12-07T05:29:16.208Z,16.77
2018-12-07T05:30:20.348Z,17.53
2018-12-07T05:31:24.399Z,17.40
2018-12-07T05:32:28.463Z,16.43
2018-12-07T05:33:32.555Z,16.87
2018-12-07T05:34:36.602Z,16.37
2018-12-07T05:35:40.635Z,16.03
2018-12-07T05:36:44.727Z,14.83
2018-12-07T05:37:48.802Z,16.30
2018-12-07T05:38:52.890Z,15.43
2018-12-07T05:39:56.966Z,15.33
2018-12-07T05:41:01.032Z,15.37
2018-12-07T05:42:05.092Z,16.27
2018-12-07T05:43:09.201Z,15.47
2018-12-07T05:44:13.266Z,15.23
2018-12-07T05:45:17.314Z,15.87
2018-12-07T05:46:22.528Z,16.03
2018-12-07T05:47:26.549Z,15.67
2018-12-07T05:48:30.898Z,15.03
2018-12-07T05:49:35.033Z,14.67
2018-12-07T05:50:39.060Z,15.07
2018-12-07T05:51:43.072Z,14.87
2018-12-07T05:52:47.225Z,14.63
2018-12-07T05:53:51.298Z,15.30
2018-12-07T05:54:55.359Z,14.27
2018-12-07T05:55:59.412Z,14.00
2018-12-07T05:57:03.559Z,14.10
2018-12-07T05:58:07.602Z,14.07
2018-12-07T05:59:11.667Z,14.67
2018-12-07T06:00:15.709Z,13.40
2018-12-07T06:01:19.798Z,12.53
2018-12-07T06:02:24.007Z,13.80
2018-12-07T06:03:28.069Z,14.33
2018-12-07T06:04:32.276Z,14.60
2018-12-07T06:05:36.324Z,14.20
2018-12-07T06:06:40.384Z,14.47
2018-12-07T06:07:44.423Z,13.97
2018-12-07T06:08:48.522Z,14.70
2018-12-07T06:09:52.611Z,14.43
2018-12-07T06:10:56.664Z,14.73
2018-12-07T06:12:00.776Z,15.43
2018-12-07T06:13:04.946Z,15.37
2018-12-07T06:14:08.994Z,15.87
2018-12-07T06:15:13.160Z,15.47
2018-12-07T06:16:17.464Z,15.47
2018-12-07T06:17:21.597Z,14.90
2018-12-07T06:18:25.821Z,15.97
2018-12-07T06:19:29.892Z,16.00
2018-12-07T06:20:34.097Z,16.37
2018-12-07T06:21:38.186Z,17.07
2018-12-07T06:22:42.259Z,16.47
2018-12-07T06:23:46.357Z,17.17
2018-12-07T06:24:50.530Z,16.30
2018-12-07T06:25:54.565Z,16.73
2018-12-07T06:26:58.638Z,16.10
2018-12-07T06:28:02.716Z,17.17
2018-12-07T06:29:06.994Z,17.10
2018-12-07T06:30:11.208Z,17.17
2018-12-07T06:31:15.266Z,16.17
2018-12-07T06:32:19.307Z,16.23
2018-12-07T06:33:23.529Z,15.77
2018-12-07T06:34:27.813Z,15.50
2018-12-07T06:35:31.934Z,16.43
2018-12-07T06:36:35.973Z,16.57
2018-12-07T06:37:40.033Z,16.60
2018-12-07T06:38:44.366Z,16.87
2018-12-07T06:39:49.247Z,17.13
2018-12-07T06:40:53.369Z,16.23
2018-12-07T06:41:57.588Z,16.37
2018-12-07T06:43:01.684Z,17.33
2018-12-07T06:44:05.749Z,16.90
2018-12-07T06:45:09.778Z,17.13
2018-12-07T06:46:13.850Z,16.80
2018-12-07T06:47:17.866Z,16.90
2018-12-07T06:48:21.953Z,16.63
2018-12-07T06:49:26.003Z,16.27
2018-12-07T06:50:30.093Z,15.77
2018-12-07T06:51:34.126Z,15.87
2018-12-07T06:52:38.245Z,15.70
2018-12-07T06:53:42.287Z,15.47
2018-12-07T06:54:46.336Z,15.10
2018-12-07T06:55:50.443Z,15.90
2018-12-07T06:56:54.556Z,16.13
2018-12-07T06:57:58.622Z,13.87
2018-12-07T06:59:02.688Z,14.40
2018-12-07T07:00:08.020Z,15.57
2018-12-07T07:01:12.125Z,15.37
2018-12-07T07:02:16.147Z,14.30
2018-12-07T07:03:20.206Z,14.63
2018-12-07T07:04:24.257Z,13.50
2018-12-07T07:05:28.337Z,13.67
2018-12-07T07:06:32.449Z,13.97
2018-12-07T07:07:36.471Z,14.50
2018-12-07T07:08:40.703Z,13.70
2018-12-07T07:09:44.758Z,13.77
2018-12-07T07:10:48.813Z,13.17
2018-12-07T07:11:52.897Z,13.03
2018-12-07T07:12:56.931Z,13.63
2018-12-07T07:14:01.033Z,13.07
2018-12-07T07:15:05.423Z,13.40
2018-12-07T07:16:10.094Z,12.90
2018-12-07T07:17:14.123Z,13.20
2018-12-07T07:18:18.234Z,13.43
2018-12-07T07:19:22.320Z,13.53
2018-12-07T07:20:26.370Z,13.23
2018-12-07T07:21:30.622Z,13.90
2018-12-07T07:22:34.702Z,13.07
2018-12-07T07:23:38.885Z,13.50
2018-12-07T07:24:42.958Z,13.57
2018-12-07T07:25:46.987Z,13.77
2018-12-07T07:26:51.093Z,14.80
2018-12-07T07:27:55.112Z,13.93
2018-12-07T07:28:59.253Z,14.10
2018-12-07T07:30:06.294Z,14.03
2018-12-07T07:31:10.786Z,13.67
2018-12-07T07:32:14.838Z,14.10
2018-12-07T07:33:18.884Z,13.80
2018-12-07T07:34:22.943Z,14.23
2018-12-07T07:35:27.015Z,13.10
2018-12-07T07:36:31.036Z,12.77
2018-12-07T07:37:35.164Z,13.43
2018-12-07T07:38:39.253Z,13.03
2018-12-07T07:39:43.257Z,12.70
2018-12-07T07:40:47.292Z,12.17
2018-12-07T07:41:51.323Z,13.10
2018-12-07T07:42:55.395Z,13.00
2018-12-07T07:43:59.420Z,13.40
2018-12-07T07:45:03.705Z,12.87
2018-12-07T07:46:07.712Z,12.47
2018-12-07T07:47:11.769Z,12.73
2018-12-07T07:48:15.804Z,12.20
2018-12-07T07:49:19.864Z,12.53
2018-12-07T07:50:23.916Z,12.60
2018-12-07T07:51:28.980Z,12.97
2018-12-07T07:52:33.020Z,13.43
2018-12-07T07:53:37.050Z,12.50
2018-12-07T07:54:41.147Z,12.70
2018-12-07T07:55:45.194Z,13.33
2018-12-07T07:56:49.283Z,12.17
2018-12-07T07:57:53.386Z,13.13
2018-12-07T07:58:57.448Z,12.60
2018-12-07T08:00:01.546Z,12.40
2018-12-07T08:01:05.955Z,12.17
2018-12-07T08:02:10.161Z,12.47
2018-12-07T08:03:14.288Z,11.77
2018-12-07T08:04:18.337Z,11.87
2018-12-07T08:05:22.496Z,11.97
2018-12-07T08:06:26.633Z,11.70
2018-12-07T08:07:30.710Z,11.17
2018-12-07T08:08:34.810Z,10.63
2018-12-07T08:09:38.894Z,11.13
2018-12-07T08:10:42.928Z,11.03
2018-12-07T08:11:46.991Z,10.20
2018-12-07T08:12:51.031Z,11.20
2018-12-07T08:13:55.100Z,11.60
2018-12-07T08:14:59.163Z,10.00
2018-12-07T08:16:03.343Z,10.93
2018-12-07T08:17:08.442Z,11.53
2018-12-07T08:18:12.642Z,11.80
2018-12-07T08:19:16.743Z,11.00
2018-12-07T08:20:20.969Z,10.30
2018-12-07T08:21:25.074Z,9.73
2018-12-07T08:22:29.230Z,9.67
2018-12-07T08:23:33.356Z,9.60
2018-12-07T08:24:37.476Z,9.67
2018-12-07T08:25:41.578Z,9.10
2018-12-07T08:26:45.643Z,8.83
2018-12-07T08:27:49.739Z,9.33
2018-12-07T08:28:53.891Z,12.63
2018-12-07T08:29:58.032Z,14.10
2018-12-07T08:31:02.083Z,22.37
2018-12-07T08:32:06.495Z,71.13
2018-12-07T08:33:10.588Z,12.87
2018-12-07T08:34:14.744Z,9.50
2018-12-07T08:35:18.855Z,7.80
2018-12-07T08:36:23.153Z,8.87
2018-12-07T08:37:27.208Z,8.80
2018-12-07T08:38:31.265Z,9.00
2018-12-07T08:39:35.411Z,8.50
2018-12-07T08:40:39.493Z,8.37
2018-12-07T08:41:43.714Z,9.17
2018-12-07T08:42:47.829Z,8.57
2018-12-07T08:43:51.939Z,8.60
2018-12-07T08:44:56.070Z,7.70
2018-12-07T08:46:00.127Z,8.33
2018-12-07T08:47:04.345Z,8.70
2018-12-07T08:48:08.510Z,8.80
2018-12-07T08:49:15.637Z,7.87
2018-12-07T08:50:19.778Z,8.13
2018-12-07T08:51:24.141Z,8.37
2018-12-07T08:52:28.307Z,8.03
2018-12-07T08:53:32.403Z,8.57
2018-12-07T08:54:36.502Z,8.43
2018-12-07T08:55:40.619Z,65.33
2018-12-07T08:56:44.749Z,17.30
2018-12-07T08:57:48.834Z,11.33
2018-12-07T08:58:53.026Z,24.43
2018-12-07T08:59:57.079Z,8.20
2018-12-07T09:01:01.337Z,8.03
2018-12-07T09:02:05.534Z,8.20
2018-12-07T09:03:09.679Z,8.40
2018-12-07T09:04:13.725Z,8.67
2018-12-07T09:05:17.952Z,9.57
2018-12-07T09:06:22.014Z,8.87
2018-12-07T09:07:26.301Z,8.50
2018-12-07T09:08:30.385Z,8.77
2018-12-07T09:09:34.417Z,8.87
2018-12-07T09:10:38.532Z,8.57
2018-12-07T09:11:42.594Z,9.03
2018-12-07T09:12:46.667Z,9.77
2018-12-07T09:13:50.702Z,9.60
2018-12-07T09:14:54.737Z,9.63
2018-12-07T09:15:58.768Z,9.70
2018-12-07T09:17:02.863Z,9.87
2018-12-07T09:18:06.957Z,9.20
2018-12-07T09:19:11.039Z,9.13
2018-12-07T09:20:16.123Z,9.40
2018-12-07T09:21:20.245Z,9.27
2018-12-07T09:22:24.747Z,8.47
2018-12-07T09:23:28.779Z,8.30
2018-12-07T09:24:32.853Z,8.73
2018-12-07T09:25:36.974Z,8.47
2018-12-07T09:26:41.197Z,8.07
2018-12-07T09:27:45.304Z,8.23
2018-12-07T09:28:49.436Z,8.37
2018-12-07T09:29:53.537Z,8.63
2018-12-07T09:30:57.598Z,8.73
2018-12-07T09:32:01.713Z,8.93
2018-12-07T09:33:05.754Z,8.67
2018-12-07T09:34:09.834Z,8.73
2018-12-07T09:35:14.020Z,8.63
2018-12-07T09:36:18.134Z,9.13
2018-12-07T09:37:22.320Z,9.10
2018-12-07T09:38:26.421Z,8.13
2018-12-07T09:39:30.531Z,8.57
2018-12-07T09:40:34.701Z,8.90
2018-12-07T09:41:38.752Z,8.93
2018-12-07T09:42:42.912Z,8.27
2018-12-07T09:43:46.977Z,9.80
2018-12-07T09:44:51.171Z,12.00
2018-12-07T09:45:55.220Z,10.27
2018-12-07T09:46:59.295Z,10.10
2018-12-07T09:48:03.345Z,8.53
2018-12-07T09:49:07.419Z,9.70
2018-12-07T09:50:11.622Z,8.77
2018-12-07T09:51:15.781Z,8.80
2018-12-07T09:52:19.829Z,8.67
2018-12-07T09:53:24.100Z,9.00
2018-12-07T09:54:28.187Z,9.40
2018-12-07T09:55:32.252Z,9.30
2018-12-07T09:56:36.267Z,9.17
2018-12-07T09:57:40.345Z,9.10
2018-12-07T09:58:44.401Z,8.70
2018-12-07T09:59:48.477Z,9.80
2018-12-07T10:00:52.617Z,10.00
2018-12-07T10:01:56.687Z,10.53
2018-12-07T10:03:00.757Z,10.40
2018-12-07T10:04:04.966Z,9.97
2018-12-07T10:05:09.250Z,10.00
2018-12-07T10:06:13.326Z,10.07
2018-12-07T10:07:17.372Z,10.97
2018-12-07T10:08:21.478Z,10.47
2018-12-07T10:09:25.701Z,10.50
2018-12-07T10:10:29.820Z,10.50
2018-12-07T10:11:33.930Z,10.53
2018-12-07T10:12:38.018Z,10.90
2018-12-07T10:13:42.087Z,11.50
2018-12-07T10:14:46.160Z,11.13
2018-12-07T10:15:50.308Z,11.37
2018-12-07T10:16:54.366Z,11.40
2018-12-07T10:17:58.440Z,11.73
2018-12-07T10:19:03.519Z,12.37
2018-12-07T10:20:07.813Z,12.07
2018-12-07T10:21:11.873Z,10.90
2018-12-07T10:22:15.910Z,11.87
2018-12-07T10:23:20.036Z,11.87
2018-12-07T10:24:24.288Z,11.63
2018-12-07T10:25:28.423Z,11.83
2018-12-07T10:26:32.738Z,11.17
2018-12-07T10:27:36.805Z,10.63
2018-12-07T10:28:40.830Z,11.20
2018-12-07T10:29:44.895Z,11.47
2018-12-07T10:30:48.963Z,10.90
2018-12-07T10:31:53.222Z,10.43
2018-12-07T10:32:57.278Z,11.13
2018-12-07T10:34:01.333Z,10.30
2018-12-07T10:35:05.653Z,9.93
2018-12-07T10:36:09.805Z,9.57
2018-12-07T10:37:13.980Z,9.50
2018-12-07T10:38:18.890Z,10.43
2018-12-07T10:39:23.143Z,10.53
2018-12-07T10:40:27.235Z,9.90
2018-12-07T10:41:31.415Z,10.03
2018-12-07T10:42:35.454Z,9.00
2018-12-07T10:43:39.585Z,9.37
2018-12-07T10:44:43.696Z,9.00
2018-12-07T10:45:47.854Z,9.53
2018-12-07T10:46:51.924Z,9.30
2018-12-07T10:47:55.991Z,9.40
2018-12-07T10:49:00.237Z,9.13
2018-12-07T10:50:04.978Z,9.20
2018-12-07T10:51:09.011Z,9.57
2018-12-07T10:52:13.034Z,9.43
2018-12-07T10:53:17.340Z,9.57
2018-12-07T10:54:21.541Z,9.23
2018-12-07T10:55:25.785Z,8.70
2018-12-07T10:56:31.003Z,8.87
2018-12-07T10:57:35.311Z,8.80
2018-12-07T10:58:39.359Z,9.20
2018-12-07T10:59:43.416Z,8.83
2018-12-07T11:00:52.845Z,7.83
2018-12-07T11:02:02.220Z,8.67
2018-12-07T11:03:11.802Z,8.87
2018-12-07T11:04:21.084Z,8.63
2018-12-07T11:05:30.534Z,8.17
2018-12-07T11:06:39.977Z,9.30
2018-12-07T11:07:49.441Z,7.77
2018-12-07T11:08:58.947Z,7.57
2018-12-07T11:10:08.397Z,7.77
2018-12-07T11:11:17.987Z,7.60
2018-12-07T11:14:32.666Z,7.17
2018-12-07T11:16:44.437Z,7.67
2018-12-07T11:17:53.984Z,7.70
2018-12-07T11:19:03.441Z,6.50
2018-12-07T11:20:13.068Z,7.03
2018-12-07T11:21:23.576Z,6.17
2018-12-07T11:22:32.957Z,6.33
2018-12-07T11:23:42.249Z,8.40
2018-12-07T11:24:51.469Z,7.60
2018-12-07T11:26:00.800Z,11.20
2018-12-07T11:27:11.360Z,7.03
2018-12-07T11:28:20.803Z,5.80
2018-12-07T11:29:30.194Z,6.93
2018-12-07T11:30:39.473Z,7.07
2018-12-07T11:31:52.765Z,24.23
2018-12-07T11:34:01.523Z,17.23
2018-12-07T11:35:11.287Z,6.47
2018-12-07T11:36:15.395Z,6.37
2018-12-07T11:37:19.504Z,8.33
2018-12-07T11:38:23.851Z,9.63
2018-12-07T11:39:28.001Z,10.27
2018-12-07T11:40:32.100Z,12.40
2018-12-07T11:41:38.128Z,10.93
2018-12-07T11:42:44.144Z,15.97
2018-12-07T11:43:48.155Z,13.97
2018-12-07T11:44:52.544Z,14.70
2018-12-07T11:45:56.672Z,12.00
2018-12-07T11:47:00.779Z,11.17
2018-12-07T11:48:04.898Z,11.93
2018-12-07T11:49:08.987Z,11.97
2018-12-07T11:50:13.263Z,9.47
2018-12-07T11:51:17.327Z,8.97
2018-12-07T11:52:21.515Z,8.37
2018-12-07T11:53:25.683Z,7.33
2018-12-07T11:54:29.694Z,6.30
2018-12-07T11:55:33.778Z,6.67
2018-12-07T11:56:37.834Z,6.97
2018-12-07T11:57:41.874Z,6.10
2018-12-07T11:58:46.012Z,6.33
2018-12-07T11:59:50.032Z,6.17
2018-12-07T12:00:54.113Z,6.20
2018-12-07T12:01:58.111Z,5.77
2018-12-07T12:03:02.182Z,6.20
2018-12-07T12:04:06.202Z,6.87
2018-12-07T12:05:10.340Z,6.27
2018-12-07T12:06:14.399Z,6.20
2018-12-07T12:07:18.464Z,5.67
2018-12-07T12:08:23.595Z,5.83
2018-12-07T12:09:27.657Z,5.63
2018-12-07T12:10:33.709Z,6.07
2018-12-07T12:11:37.803Z,6.10
2018-12-07T12:12:41.972Z,5.53
2018-12-07T12:13:46.027Z,6.13
2018-12-07T12:14:50.164Z,5.77
2018-12-07T12:15:54.210Z,5.40
2018-12-07T12:16:58.581Z,5.23
2018-12-07T12:18:02.859Z,5.20
2018-12-07T12:19:07.934Z,5.30
2018-12-07T12:20:12.189Z,6.00
2018-12-07T12:21:16.818Z,5.43
2018-12-07T12:22:20.872Z,5.20
2018-12-07T12:23:24.905Z,5.07
2018-12-07T12:24:29.000Z,5.63
2018-12-07T12:25:33.120Z,5.87
2018-12-07T12:26:37.237Z,5.80
2018-12-07T12:27:41.268Z,6.10
2018-12-07T12:28:45.310Z,6.63
2018-12-07T12:29:49.362Z,6.33
2018-12-07T12:30:53.465Z,6.60
2018-12-07T12:31:57.511Z,6.57
2018-12-07T12:33:01.557Z,5.90
2018-12-07T12:34:06.718Z,7.33
2018-12-07T12:35:10.952Z,5.73
2018-12-07T12:36:17.259Z,5.43
2018-12-07T12:37:21.173Z,5.50
2018-12-07T12:38:25.227Z,5.43
2018-12-07T12:39:29.417Z,6.20
2018-12-07T12:40:33.497Z,5.63
2018-12-07T12:41:37.734Z,6.20
2018-12-07T12:42:41.826Z,5.87
2018-12-07T12:43:45.928Z,6.43
2018-12-07T12:44:50.009Z,6.33
2018-12-07T12:45:54.063Z,6.40
2018-12-07T12:46:58.083Z,5.37
2018-12-07T12:48:02.713Z,5.47
2018-12-07T12:49:07.657Z,6.47
2018-12-07T12:50:18.965Z,6.83
2018-12-07T12:51:23.350Z,6.07
2018-12-07T12:52:27.445Z,5.20
2018-12-07T12:53:32.722Z,6.37
2018-12-07T12:54:36.788Z,5.60
2018-12-07T12:55:40.990Z,5.63
2018-12-07T12:56:45.121Z,6.20
2018-12-07T12:57:49.373Z,6.33
2018-12-07T12:58:53.511Z,5.70
2018-12-07T12:59:58.957Z,5.07
2018-12-07T13:01:03.468Z,5.93
2018-12-07T13:02:07.800Z,6.83
2018-12-07T13:03:12.026Z,5.67
2018-12-07T13:04:16.082Z,5.13
2018-12-07T13:05:20.214Z,5.40
2018-12-07T13:06:24.646Z,4.07
2018-12-07T13:07:28.693Z,4.50
2018-12-07T13:08:32.829Z,4.70
2018-12-07T13:09:37.181Z,4.80
2018-12-07T13:10:41.250Z,4.67
2018-12-07T13:11:45.356Z,4.53
2018-12-07T13:12:50.219Z,3.90
2018-12-07T13:13:54.914Z,4.00
2018-12-07T13:14:59.115Z,3.70
2018-12-07T13:16:03.382Z,3.87
2018-12-07T13:17:07.488Z,4.27
2018-12-07T13:18:12.685Z,3.73
2018-12-07T13:19:16.749Z,3.80
2018-12-07T13:20:20.808Z,4.03
2018-12-07T13:21:25.008Z,3.70
2018-12-07T13:22:29.057Z,4.07
2018-12-07T13:23:33.130Z,4.07
2018-12-07T13:24:37.145Z,3.70
2018-12-07T13:25:41.338Z,4.73
2018-12-07T13:26:45.507Z,4.17
2018-12-07T13:27:49.620Z,4.50
2018-12-07T13:28:53.692Z,4.57
2018-12-07T13:29:57.761Z,3.73
2018-12-07T13:31:01.973Z,2.87
2018-12-07T13:32:06.121Z,6.13
2018-12-07T13:33:10.730Z,3.53
2018-12-07T13:34:14.836Z,9.73
2018-12-07T13:35:18.898Z,15.97
2018-12-07T13:36:23.140Z,7.07
2018-12-07T13:37:28.011Z,2.63
2018-12-07T13:38:32.091Z,2.50
2018-12-07T13:39:36.481Z,2.80
2018-12-07T13:40:40.795Z,2.70
2018-12-07T13:41:50.346Z,2.80
2018-12-07T13:42:51.316Z,2.90
2018-12-07T13:43:56.621Z,2.93
2018-12-07T13:45:01.027Z,3.23
2018-12-07T13:46:05.537Z,3.10
2018-12-07T13:47:09.967Z,2.97
2018-12-07T13:48:16.762Z,2.97
2018-12-07T13:49:22.123Z,3.17
2018-12-07T13:50:31.755Z,3.43
2018-12-07T13:51:35.990Z,3.47
2018-12-07T13:52:40.336Z,3.87
2018-12-07T13:53:44.729Z,3.27
2018-12-07T13:54:48.887Z,3.90
2018-12-07T13:55:53.521Z,3.70
2018-12-07T13:56:57.704Z,3.33
2018-12-07T13:58:02.101Z,3.50
2018-12-07T13:59:06.450Z,3.70
2018-12-07T14:00:11.862Z,3.53
2018-12-07T14:01:16.524Z,3.60
2018-12-07T14:02:20.703Z,3.73